Time;durP1;ratioP1;P1;durP2;ratioP2;P2;SDS_P1;SDS_P2;PMS_P1;PMS_P2;Temp;Humidity;BMP_temperature;BMP_pressure;BME280_temperature;BME280_humidity;BME280_pressure;Samples;Min_cycle;Max_cycle;Signal;HPM_P1;HPM_P2
2021/10/20 00:01:44;;;;;;;2.08;1.98;;;;;;;16.27;91.83;99412.28;4916195;29;20082;-77
2021/10/20 00:04:10;;;;;;;1.65;1.65;;;;;;;16.27;91.60;99420.56;4932021;29;20059;-77
2021/10/20 00:06:36;;;;;;;2.20;2.10;;;;;;;16.27;91.95;99412.28;4931346;29;20538;-76
2021/10/20 00:09:01;;;;;;;2.75;2.63;;;;;;;16.27;91.95;99401.25;4929160;29;20039;-76
2021/10/20 00:11:27;;;;;;;2.45;2.35;;;;;;;16.25;91.36;99386.97;4934730;29;20075;-76
2021/10/20 00:13:53;;;;;;;2.38;2.28;;;;;;;16.26;91.71;99377.56;4926706;29;20020;-76
2021/10/20 00:16:19;;;;;;;2.38;2.28;;;;;;;16.26;91.47;99366.53;4902026;29;20028;-74
2021/10/20 00:18:48;;;;;;;2.40;2.30;;;;;;;16.26;91.71;99361.81;4929262;29;20403;-74
2021/10/20 00:21:16;;;;;;;2.63;2.53;;;;;;;16.27;91.42;99360.69;4920746;29;20043;-75
2021/10/20 00:23:42;;;;;;;2.72;2.63;;;;;;;16.26;91.44;99349.97;4937475;29;20028;-77
2021/10/20 00:26:07;;;;;;;3.03;2.92;;;;;;;16.25;91.43;99345.59;4938920;29;20119;-77
2021/10/20 00:28:33;;;;;;;3.28;3.08;;;;;;;16.22;91.69;99334.09;4942696;29;20083;-77
2021/10/20 00:30:59;;;;;;;3.08;2.90;;;;;;;16.23;91.52;99338.44;4939723;29;20048;-76
2021/10/20 00:33:25;;;;;;;2.38;2.28;;;;;;;16.16;91.70;99315.28;4920355;29;20020;-77
2021/10/20 00:35:50;;;;;;;3.60;3.40;;;;;;;16.25;91.47;99337.31;4935074;29;20024;-75
2021/10/20 00:38:16;;;;;;;4.20;4.00;;;;;;;16.20;91.60;99328.06;4925993;29;20051;-76
2021/10/20 00:40:41;;;;;;;4.53;4.32;;;;;;;16.20;91.48;99319.81;4938552;29;20386;-76
2021/10/20 00:43:07;;;;;;;3.78;3.47;;;;;;;16.21;91.19;99328.91;4933538;29;20498;-76
2021/10/20 00:45:35;;;;;;;4.85;4.57;;;;;;;16.17;91.43;99314.94;4913362;29;20040;-76
2021/10/20 00:48:01;;;;;;;4.47;4.18;;;;;;;16.17;91.59;99316.91;4916696;29;20035;-77
2021/10/20 00:50:26;;;;;;;4.32;4.13;;;;;;;16.16;91.86;99313.31;4925848;29;20466;-76
2021/10/20 00:52:52;;;;;;;5.13;4.82;;;;;;;16.15;91.79;99317.25;4932663;29;20435;-76
2021/10/20 00:55:17;;;;;;;5.05;4.65;;;;;;;16.09;91.60;99313.06;4942052;29;20026;-76
2021/10/20 00:57:46;;;;;;;5.82;5.40;;;;;;;16.11;91.94;99316.28;4939683;29;20026;-76
2021/10/20 01:00:16;;;;;;;6.93;5.68;;;;;;;16.06;91.65;99321.97;4945408;29;20024;-76
2021/10/20 01:02:41;;;;;;;6.00;5.60;;;;;;;16.07;91.63;99315.31;4932492;29;20039;-76
2021/10/20 01:05:08;;;;;;;5.25;4.65;;;;;;;16.05;92.01;99317.59;4947846;29;20031;-76
2021/10/20 01:07:35;;;;;;;5.55;5.20;;;;;;;16.01;91.42;99322.16;4942856;29;20048;-76
2021/10/20 01:10:03;;;;;;;5.85;5.53;;;;;;;16.00;91.88;99312.25;4932957;29;20028;-76
2021/10/20 01:12:29;;;;;;;5.43;5.13;;;;;;;16.01;92.29;99300.09;4923869;29;20371;-76
2021/10/20 01:14:54;;;;;;;5.40;5.03;;;;;;;16.03;91.61;99306.06;4918022;29;20031;-76
2021/10/20 01:17:20;;;;;;;5.53;5.13;;;;;;;16.03;92.16;99303.31;4932541;29;20043;-76
2021/10/20 01:19:46;;;;;;;5.15;4.95;;;;;;;15.99;92.25;99310.63;4937939;29;20032;-76
2021/10/20 01:22:12;;;;;;;4.95;4.55;;;;;;;16.00;91.95;99273.66;4918581;29;20039;-76
2021/10/20 01:24:39;;;;;;;5.28;4.88;;;;;;;15.99;92.28;99277.53;4932986;29;20023;-75
2021/10/20 01:27:05;;;;;;;4.30;4.10;;;;;;;16.00;91.93;99276.41;4927087;29;20040;-76
2021/10/20 01:29:30;;;;;;;4.43;4.13;;;;;;;16.02;91.89;99269.44;4928863;29;20028;-75
2021/10/20 01:31:59;;;;;;;3.08;2.97;;;;;;;15.98;91.83;99274.00;4897100;29;20028;-75
2021/10/20 01:34:25;;;;;;;3.75;3.55;;;;;;;15.99;92.06;99280.31;4936087;29;20035;-75
2021/10/20 01:36:52;;;;;;;3.13;3.03;;;;;;;15.99;92.05;99285.81;4939230;29;20023;-77
2021/10/20 01:39:19;;;;;;;3.08;2.88;;;;;;;16.00;91.95;99292.97;4918255;29;20031;-76
2021/10/20 01:41:45;;;;;;;3.90;3.55;;;;;;;16.02;91.70;99268.63;4908663;29;20086;-75
2021/10/20 01:44:11;;;;;;;3.40;3.20;;;;;;;16.01;91.65;99289.06;4931896;29;20063;-76
2021/10/20 01:46:36;;;;;;;3.03;2.83;;;;;;;15.96;91.78;99258.91;4927574;29;20407;-75
2021/10/20 01:49:02;;;;;;;2.80;2.63;;;;;;;15.97;91.76;99252.25;4916197;29;20032;-75
2021/10/20 01:51:28;;;;;;;3.20;3.00;;;;;;;15.96;91.71;99203.78;4921932;29;20363;-75
2021/10/20 01:53:54;;;;;;;2.65;2.55;;;;;;;15.98;91.78;99184.97;4913696;29;20028;-75
2021/10/20 01:56:20;;;;;;;3.67;3.38;;;;;;;15.96;91.85;99214.78;4928972;29;20028;-76
2021/10/20 01:58:46;;;;;;;4.07;3.78;;;;;;;15.94;91.68;99222.59;4922815;29;20028;-75
2021/10/20 02:01:12;;;;;;;4.45;4.05;;;;;;;15.93;91.48;99221.81;4939818;29;20369;-76
2021/10/20 02:03:39;;;;;;;4.55;4.25;;;;;;;15.91;91.84;99215.00;4928418;29;20031;-74
2021/10/20 02:06:14;;;;;;;4.75;4.45;;;;;;;15.92;92.10;99224.91;4919674;29;20028;-74
2021/10/20 02:08:41;;;;;;;5.20;4.90;;;;;;;15.89;91.76;99220.84;4917276;29;20437;-75
2021/10/20 02:11:07;;;;;;;5.60;5.15;;;;;;;15.89;91.63;99209.81;4928992;29;20110;-75
2021/10/20 02:13:33;;;;;;;5.47;5.18;;;;;;;15.87;91.90;99201.88;4932497;29;20023;-74
2021/10/20 02:15:59;;;;;;;6.05;5.25;;;;;;;15.86;91.57;99204.97;4924088;29;20095;-76
2021/10/20 02:18:26;;;;;;;6.13;4.80;;;;;;;15.85;92.26;99201.38;4917382;29;20024;-76
2021/10/20 02:20:52;;;;;;;5.68;5.32;;;;;;;15.93;91.93;99207.19;4925240;29;20115;-76
2021/10/20 02:23:18;;;;;;;6.22;5.72;;;;;;;15.92;91.81;99202.84;4933200;29;20020;-75
2021/10/20 02:25:44;;;;;;;5.97;5.63;;;;;;;15.94;91.62;99195.03;4925179;29;20472;-74
2021/10/20 02:28:10;;;;;;;5.68;5.20;;;;;;;15.95;92.11;99186.44;4908610;29;20047;-75
2021/10/20 02:30:36;;;;;;;6.28;5.88;;;;;;;15.94;91.97;99187.56;4921819;29;20020;-76
2021/10/20 02:33:01;;;;;;;4.60;4.40;;;;;;;15.95;91.67;99191.16;4929518;29;20032;-75
2021/10/20 02:35:27;;;;;;;4.30;4.03;;;;;;;15.94;91.52;99184.81;4895571;29;20070;-75
2021/10/20 02:37:52;;;;;;;3.50;3.20;;;;;;;15.96;91.89;99173.44;4919463;29;20027;-75
2021/10/20 02:40:18;;;;;;;3.65;3.45;;;;;;;15.96;91.96;99165.19;4920361;29;20378;-75
2021/10/20 02:42:43;;;;;;;3.22;3.13;;;;;;;15.93;91.77;99155.66;4931546;29;20147;-76
2021/10/20 02:45:12;;;;;;;3.03;2.92;;;;;;;15.95;91.48;99158.06;4932458;29;20488;-76
2021/10/20 02:47:41;;;;;;;2.47;2.38;;;;;;;15.93;91.51;99146.53;4920947;29;20030;-76
2021/10/20 02:50:07;;;;;;;2.85;2.72;;;;;;;15.95;91.48;99152.56;4923638;29;20028;-76
2021/10/20 02:52:33;;;;;;;2.65;2.53;;;;;;;15.94;91.77;99167.47;4922730;29;20521;-76
2021/10/20 02:54:59;;;;;;;2.58;2.38;;;;;;;15.88;91.57;99148.34;4918120;29;20027;-76
2021/10/20 02:57:24;;;;;;;2.38;2.28;;;;;;;15.95;91.54;99180.13;4917269;29;20027;-76
2021/10/20 02:59:51;;;;;;;1.92;1.83;;;;;;;15.96;91.40;99162.41;4934181;29;20032;-77
2021/10/20 03:02:17;;;;;;;3.17;2.85;;;;;;;15.95;91.92;99130.50;4928040;29;20070;-76
2021/10/20 03:04:43;;;;;;;2.53;2.42;;;;;;;15.98;91.58;99113.28;4925891;29;20414;-76
2021/10/20 03:07:09;;;;;;;2.63;2.42;;;;;;;15.98;91.87;99102.25;4944927;29;20026;-76
2021/10/20 03:09:34;;;;;;;2.50;2.40;;;;;;;15.98;92.21;99107.78;4910903;29;20095;-76
2021/10/20 03:12:00;;;;;;;3.13;2.90;;;;;;;15.97;91.39;99095.13;4931522;29;20032;-75
2021/10/20 03:14:26;;;;;;;3.30;3.00;;;;;;;15.96;91.72;99054.91;4920190;29;20122;-76
2021/10/20 03:16:52;;;;;;;3.10;2.63;;;;;;;15.96;91.52;99054.91;4923103;29;20433;-77
2021/10/20 03:19:17;;;;;;;3.72;2.58;;;;;;;15.96;91.62;99099.00;4931768;29;20106;-77
2021/10/20 03:21:43;;;;;;;3.30;3.17;;;;;;;15.94;91.70;99085.56;4909078;29;20024;-76
2021/10/20 03:24:11;;;;;;;3.10;2.90;;;;;;;15.96;91.73;99096.25;4932722;29;20031;-76
2021/10/20 03:26:37;;;;;;;2.40;2.30;;;;;;;15.98;91.40;99094.78;4912697;29;20486;-75
2021/10/20 03:29:03;;;;;;;2.10;1.95;;;;;;;15.98;91.55;99081.00;4929295;29;20064;-76
2021/10/20 03:31:28;;;;;;;2.20;2.00;;;;;;;16.00;91.87;99051.16;4913719;29;20023;-76
2021/10/20 03:33:54;;;;;;;2.38;2.28;;;;;;;15.99;91.53;99056.97;4914058;29;20422;-76
2021/10/20 03:36:19;;;;;;;2.35;2.25;;;;;;;16.00;91.63;99077.91;4897744;29;20040;-75
2021/10/20 03:38:45;;;;;;;2.78;2.58;;;;;;;16.01;91.37;99085.03;4894725;29;20030;-75
2021/10/20 03:41:10;;;;;;;2.40;2.30;;;;;;;16.01;91.91;99082.28;4917494;29;20024;-76
2021/10/20 03:43:37;;;;;;;2.45;2.25;;;;;;;16.03;91.54;99082.75;4926081;29;20052;-76
2021/10/20 03:46:03;;;;;;;2.03;1.92;;;;;;;16.03;91.71;99052.41;4932034;29;20028;-77
2021/10/20 03:48:28;;;;;;;2.10;2.00;;;;;;;16.05;91.87;99050.16;4913608;29;20035;-76
2021/10/20 03:50:54;;;;;;;1.40;1.40;;;;;;;16.04;91.54;99062.31;4931401;29;20036;-77
2021/10/20 03:53:19;;;;;;;1.58;1.50;;;;;;;16.07;91.82;99061.63;4906112;29;20474;-76
2021/10/20 03:55:45;;;;;;;1.38;1.38;;;;;;;16.11;91.92;99068.09;4913787;29;20382;-77
2021/10/20 03:58:10;;;;;;;0.98;0.98;;;;;;;16.09;91.71;99062.13;4906469;29;20389;-76
2021/10/20 04:00:36;;;;;;;1.00;1.00;;;;;;;16.07;91.57;99061.63;4930049;29;20439;-77
2021/10/20 04:03:01;;;;;;;1.27;1.15;;;;;;;16.11;91.38;99070.84;4914932;29;20382;-76
2021/10/20 04:05:27;;;;;;;1.10;1.02;;;;;;;16.11;91.38;99056.28;4909801;29;20032;-77
2021/10/20 04:07:53;;;;;;;0.82;0.82;;;;;;;16.13;91.30;99054.75;4924258;29;20446;-75
2021/10/20 04:10:24;;;;;;;0.80;0.80;;;;;;;16.13;91.19;99049.25;4922804;29;20119;-75
2021/10/20 04:12:51;;;;;;;0.82;0.80;;;;;;;16.13;91.86;99052.00;4928225;29;20059;-75
2021/10/20 04:15:19;;;;;;;0.80;0.80;;;;;;;16.13;91.22;99046.50;4923087;29;20032;-77
2021/10/20 04:17:45;;;;;;;1.27;1.17;;;;;;;16.12;91.19;99055.94;4931924;29;20027;-76
2021/10/20 04:20:13;;;;;;;0.80;0.80;;;;;;;16.13;91.61;99038.22;4932854;29;20032;-76
2021/10/20 04:22:39;;;;;;;0.82;0.82;;;;;;;16.08;91.34;99029.34;4927989;29;20044;-75
2021/10/20 04:25:06;;;;;;;0.90;0.90;;;;;;;16.07;91.22;99039.56;4934105;29;20102;-76
2021/10/20 04:27:32;;;;;;;1.38;1.27;;;;;;;16.01;91.04;99038.16;4937500;29;20027;-77
2021/10/20 04:29:59;;;;;;;0.93;0.90;;;;;;;15.91;91.01;99025.59;4937957;29;20032;-76
2021/10/20 04:32:26;;;;;;;1.13;1.00;;;;;;;15.96;91.26;99032.84;4905293;29;20036;-74
2021/10/20 04:34:51;;;;;;;0.98;0.98;;;;;;;15.92;91.41;99034.69;4929486;29;20038;-75
2021/10/20 04:37:23;;;;;;;1.08;0.98;;;;;;;15.90;91.11;99031.44;4925617;29;20470;-75
2021/10/20 04:39:49;;;;;;;1.15;1.05;;;;;;;15.90;90.91;99029.47;4924686;29;20067;-75
2021/10/20 04:42:16;;;;;;;0.77;0.77;;;;;;;15.88;90.89;99021.53;4921429;29;20032;-75
2021/10/20 04:44:41;;;;;;;1.25;1.15;;;;;;;15.85;91.18;99016.72;4926915;29;20044;-75
2021/10/20 04:47:07;;;;;;;0.90;0.90;;;;;;;15.87;91.31;99019.94;4908477;29;20048;-75
2021/10/20 04:49:32;;;;;;;1.50;1.40;;;;;;;15.82;91.20;99006.34;4898315;29;20127;-73
2021/10/20 04:52:08;;;;;;;0.90;0.90;;;;;;;15.87;91.04;99008.09;4928873;29;20028;-75
2021/10/20 04:54:34;;;;;;;1.02;1.00;;;;;;;15.83;91.14;98996.94;4933753;29;20024;-76
2021/10/20 04:56:59;;;;;;;2.45;1.67;;;;;;;15.78;91.17;98996.31;4920758;29;20034;-76
2021/10/20 04:59:31;;;;;;;2.25;1.67;;;;;;;15.84;90.93;98995.00;4934479;29;20024;-76
2021/10/20 05:02:03;;;;;;;1.00;1.00;;;;;;;15.76;90.93;98990.34;4934871;29;20032;-76
2021/10/20 05:04:30;;;;;;;1.63;1.52;;;;;;;15.68;90.76;99001.09;4933620;29;20028;-76
2021/10/20 05:06:57;;;;;;;1.17;1.17;;;;;;;15.66;90.96;98988.78;4918057;29;20028;-76
2021/10/20 05:09:25;;;;;;;1.65;1.55;;;;;;;15.62;90.68;98996.09;4933951;29;20032;-75
2021/10/20 05:11:51;;;;;;;1.60;1.50;;;;;;;15.51;90.61;98990.19;4935130;29;20023;-75
2021/10/20 05:14:17;;;;;;;1.77;1.40;;;;;;;15.57;91.00;98999.06;4918013;29;20028;-75
2021/10/20 05:16:43;;;;;;;1.88;1.77;;;;;;;15.52;91.25;98991.78;4941085;29;20020;-76
2021/10/20 05:19:11;;;;;;;1.45;1.35;;;;;;;15.45;90.92;98981.31;4936673;29;20027;-75
2021/10/20 05:21:36;;;;;;;1.77;1.67;;;;;;;15.40;90.87;98991.72;4907667;29;20019;-75
2021/10/20 05:24:02;;;;;;;1.70;1.60;;;;;;;15.32;90.58;98983.16;4904244;29;20134;-75
2021/10/20 05:26:28;;;;;;;4.28;1.40;;;;;;;15.28;90.56;98986.91;4921536;29;20027;-75
2021/10/20 05:28:55;;;;;;;2.10;1.90;;;;;;;15.26;90.57;98989.19;4924604;29;20062;-76
2021/10/20 05:31:22;;;;;;;1.60;1.50;;;;;;;15.19;90.70;98987.75;4911967;29;20031;-76
2021/10/20 05:33:48;;;;;;;2.42;1.50;;;;;;;15.15;90.98;98977.75;4923618;29;20062;-76
2021/10/20 05:36:13;;;;;;;3.83;2.15;;;;;;;15.19;91.13;99000.72;4913992;29;20501;-77
2021/10/20 05:38:39;;;;;;;3.13;2.42;;;;;;;15.26;91.50;99016.72;4901283;29;20023;-78
2021/10/20 05:41:06;;;;;;;4.13;1.92;;;;;;;15.18;91.13;98997.16;4922552;29;20459;-74
2021/10/20 05:43:32;;;;;;;2.08;1.98;;;;;;;15.29;90.98;99013.31;4903566;29;20802;-76
2021/10/20 05:45:57;;;;;;;2.08;1.88;;;;;;;15.24;91.14;99002.47;4918931;29;20067;-75
2021/10/20 05:48:23;;;;;;;2.92;2.42;;;;;;;15.25;91.34;98998.59;4901864;29;20119;-77
2021/10/20 05:50:49;;;;;;;1.95;1.85;;;;;;;15.26;91.06;98994.69;4908569;29;20397;-76
2021/10/20 05:53:15;;;;;;;2.88;2.67;;;;;;;15.23;91.10;98989.84;4917007;29;20036;-76
2021/10/20 05:55:41;;;;;;;2.33;2.22;;;;;;;15.24;90.98;98994.22;4930591;29;20034;-75
2021/10/20 05:58:09;;;;;;;4.35;3.22;;;;;;;15.24;91.31;98983.22;4934759;29;20047;-75
2021/10/20 06:00:35;;;;;;;3.55;3.28;;;;;;;15.30;91.15;98984.63;4937784;29;20020;-76
2021/10/20 06:03:00;;;;;;;4.82;2.90;;;;;;;15.23;91.00;98967.81;4914654;29;20031;-75
2021/10/20 06:05:28;;;;;;;9.75;3.30;;;;;;;15.16;90.74;98966.41;4922295;29;20039;-76
2021/10/20 06:08:01;;;;;;;4.47;3.42;;;;;;;15.17;90.99;98967.19;4910730;29;20048;-74
2021/10/20 06:10:26;;;;;;;5.45;2.97;;;;;;;15.22;91.17;98978.03;4912356;29;20471;-75
2021/10/20 06:12:52;;;;;;;3.25;2.75;;;;;;;15.23;90.69;98978.84;4924583;29;20131;-75
2021/10/20 06:15:24;;;;;;;2.67;2.53;;;;;;;15.17;91.18;98991.97;4915881;29;20102;-76
2021/10/20 06:17:50;;;;;;;3.58;2.85;;;;;;;15.19;91.09;98979.50;4927899;29;20016;-77
2021/10/20 06:20:24;;;;;;;2.92;2.70;;;;;;;15.21;90.94;98992.13;4930092;29;20048;-77
2021/10/20 06:22:50;;;;;;;2.03;1.85;;;;;;;15.24;91.05;99019.00;4929410;29;20052;-76
2021/10/20 06:25:15;;;;;;;1.70;1.60;;;;;;;15.14;91.11;99029.25;4928049;29;20044;-76
2021/10/20 06:27:41;;;;;;;4.18;1.83;;;;;;;14.97;90.50;99027.38;4916307;29;20023;-76
2021/10/20 06:30:08;;;;;;;1.15;1.05;;;;;;;14.75;90.14;99039.44;4913015;29;20202;-75
2021/10/20 06:32:33;;;;;;;1.52;0.68;;;;;;;14.54;90.51;99024.72;4930083;29;20119;-76
2021/10/20 06:34:59;;;;;;;0.45;0.40;;;;;;;14.33;90.25;98986.91;4933930;29;20125;-75
2021/10/20 06:37:27;;;;;;;0.22;0.20;;;;;;;14.10;90.20;98995.31;4925480;29;20028;-77
2021/10/20 06:39:53;;;;;;;0.10;0.10;;;;;;;13.91;90.19;98986.59;4928678;29;20035;-75
2021/10/20 06:42:18;;;;;;;0.28;0.28;;;;;;;13.85;90.47;98998.91;4924640;29;20028;-76
2021/10/20 06:44:44;;;;;;;0.45;0.32;;;;;;;13.74;90.64;98999.22;4932465;29;20043;-76
2021/10/20 06:47:09;;;;;;;0.10;0.10;;;;;;;13.73;90.69;99003.09;4919793;29;20039;-75
2021/10/20 06:49:35;;;;;;;0.17;0.15;;;;;;;13.67;90.71;98998.06;4934575;29;20079;-76
2021/10/20 06:52:00;;;;;;;0.10;0.10;;;;;;;13.61;90.28;98990.00;4928148;29;20036;-77
2021/10/20 06:54:27;;;;;;;0.20;0.20;;;;;;;13.52;89.87;98999.34;4914227;29;20031;-74
2021/10/20 06:56:54;;;;;;;0.10;0.10;;;;;;;13.38;90.36;99008.50;4925631;29;20039;-74
2021/10/20 06:59:20;;;;;;;0.22;0.20;;;;;;;13.23;89.88;98995.22;4903408;29;20058;-74
2021/10/20 07:01:45;;;;;;;0.03;0.03;;;;;;;13.05;89.87;98984.19;4915410;29;20032;-75
2021/10/20 07:04:11;;;;;;;0.13;0.13;;;;;;;13.01;89.77;98988.69;4912061;29;20423;-79
2021/10/20 07:06:38;;;;;;;0.10;0.10;;;;;;;12.98;89.99;98985.75;4919555;29;20122;-75
2021/10/20 07:09:07;;;;;;;0.17;0.17;;;;;;;12.96;90.44;98996.25;4928077;29;20032;-72
2021/10/20 07:11:33;;;;;;;0.20;0.20;;;;;;;12.92;90.57;99002.38;4916513;29;20745;-71
2021/10/20 07:13:59;;;;;;;0.10;0.10;;;;;;;12.90;90.68;99001.06;4932103;29;20051;-73
2021/10/20 07:16:24;;;;;;;0.10;0.10;;;;;;;12.90;90.59;98990.09;4923758;29;20469;-73
2021/10/20 07:18:53;;;;;;;0.17;0.10;;;;;;;12.91;90.46;98994.47;4926409;29;20079;-75
2021/10/20 07:21:19;;;;;;;0.22;0.22;;;;;;;12.98;90.82;99005.78;4928265;29;20046;-74
2021/10/20 07:23:45;;;;;;;0.30;0.20;;;;;;;13.02;91.17;99001.25;4925195;29;20470;-75
2021/10/20 07:26:11;;;;;;;0.30;0.20;;;;;;;13.10;91.68;99005.97;4917998;29;20028;-75
2021/10/20 07:28:39;;;;;;;0.20;0.20;;;;;;;13.13;90.72;98998.22;4927359;29;20032;-75
2021/10/20 07:31:05;;;;;;;0.17;0.17;;;;;;;13.04;90.96;98982.56;4924889;29;20035;-75
2021/10/20 07:33:30;;;;;;;0.20;0.20;;;;;;;13.06;91.18;98995.97;4926517;29;20447;-75
2021/10/20 07:35:56;;;;;;;1.63;0.13;;;;;;;13.13;91.09;99011.94;4906294;29;20072;-75
2021/10/20 07:38:22;;;;;;;0.08;0.08;;;;;;;13.13;91.01;98995.47;4922694;29;20040;-73
2021/10/20 07:40:48;;;;;;;0.43;0.20;;;;;;;13.14;91.10;99000.69;4921488;29;20032;-74
2021/10/20 07:43:16;;;;;;;0.35;0.20;;;;;;;13.17;91.02;98988.25;4928223;29;20184;-74
2021/10/20 07:45:51;;;;;;;0.30;0.30;;;;;;;13.17;91.24;98980.84;4923634;29;20390;-74
2021/10/20 07:48:29;;;;;;;1.00;0.10;;;;;;;13.17;91.21;98980.00;4932679;29;20043;-74
2021/10/20 07:50:55;;;;;;;0.20;0.13;;;;;;;13.09;91.38;98968.69;4932281;29;20036;-75
2021/10/20 07:53:21;;;;;;;0.20;0.10;;;;;;;13.12;90.97;98971.94;4911906;29;20040;-74
2021/10/20 07:55:56;;;;;;;;;;;;;;;;;;;;;
2021/10/20 08:01:42;;;;;;;0.22;0.17;;;;;;;13.27;90.73;98990.69;4907620;29;20067;-74
2021/10/20 08:04:25;;;;;;;0.10;0.10;;;;;;;13.25;91.21;98981.97;4908531;29;20028;-75
2021/10/20 08:06:53;;;;;;;1.88;0.20;;;;;;;13.35;91.35;98984.44;4930735;29;20426;-73
2021/10/20 08:09:20;;;;;;;0.50;0.20;;;;;;;13.44;91.32;98981.72;4914056;29;20032;-74
2021/10/20 08:11:46;;;;;;;3.53;0.20;;;;;;;13.65;90.94;98981.91;4917939;29;20115;-73
2021/10/20 08:14:12;;;;;;;0.20;0.20;;;;;;;13.86;91.68;98978.53;4936608;29;20106;-74
2021/10/20 08:16:37;;;;;;;0.30;0.30;;;;;;;14.31;91.77;98983.69;4916851;29;20036;-72
2021/10/20 08:19:03;;;;;;;1.17;1.08;;;;;;;14.90;91.57;99001.50;4914626;29;20027;-73
2021/10/20 08:21:31;;;;;;;3.33;0.85;;;;;;;15.49;90.19;98982.25;4915509;29;20054;-73
2021/10/20 08:23:57;;;;;;;4.78;0.95;;;;;;;16.23;88.55;98979.09;4934865;29;20525;-72
2021/10/20 08:26:25;;;;;;;0.57;0.57;;;;;;;16.97;87.28;98986.75;4925613;29;20040;-73
2021/10/20 08:28:53;;;;;;;0.50;0.28;;;;;;;17.27;85.35;98979.88;4944729;29;20437;-72
2021/10/20 08:31:30;;;;;;;1.23;0.60;;;;;;;17.37;85.93;99006.22;4934055;29;20020;-73
2021/10/20 08:33:56;;;;;;;1.05;0.73;;;;;;;17.36;85.85;98979.75;4926896;29;20090;-71
2021/10/20 08:36:22;;;;;;;5.60;1.10;;;;;;;17.18;85.32;98998.50;4923363;29;21630;-73
2021/10/20 08:38:50;;;;;;;2.50;0.95;;;;;;;16.86;85.93;98991.91;4922664;29;20401;-73
2021/10/20 08:41:25;;;;;;;4.60;1.13;;;;;;;16.66;86.63;98990.81;4911229;29;20044;-72
2021/10/20 08:43:54;;;;;;;1.05;0.70;;;;;;;16.35;86.89;98972.81;4919326;29;20047;-75
2021/10/20 08:46:25;;;;;;;6.47;1.42;;;;;;;16.04;87.35;98976.84;4932056;29;20036;-74
2021/10/20 08:48:52;;;;;;;4.72;0.60;;;;;;;15.81;88.27;98979.97;4926147;29;20114;-73
2021/10/20 08:51:18;;;;;;;2.67;1.02;;;;;;;15.69;88.99;98969.63;4933337;29;20110;-73
2021/10/20 08:53:44;;;;;;;3.22;1.23;;;;;;;15.62;89.76;98960.28;4917533;29;20102;-74
2021/10/20 08:56:13;;;;;;;3.13;1.00;;;;;;;15.52;89.96;98953.22;4918444;29;20171;-74
2021/10/20 08:58:39;;;;;;;1.80;1.02;;;;;;;15.60;90.06;98965.34;4926637;29;20032;-74
2021/10/20 09:01:04;;;;;;;2.97;0.98;;;;;;;15.54;89.66;98960.00;4933033;29;20396;-74
2021/10/20 09:03:30;;;;;;;4.43;1.33;;;;;;;15.59;89.91;98966.47;4911108;29;20478;-75
2021/10/20 09:06:01;;;;;;;2.97;1.25;;;;;;;15.69;89.93;98971.56;4931062;29;20050;-74
2021/10/20 09:08:26;;;;;;;5.22;1.40;;;;;;;15.77;89.93;98958.88;4935001;29;20082;-74
2021/10/20 09:10:52;;;;;;;4.13;1.25;;;;;;;15.83;89.46;98963.88;4920848;29;20028;-75
2021/10/20 09:13:25;;;;;;;7.25;1.48;;;;;;;15.86;88.92;98954.94;4915035;29;20047;-75
2021/10/20 09:15:50;;;;;;;2.45;0.95;;;;;;;15.92;89.19;98946.47;4928151;29;20031;-74
2021/10/20 09:18:16;;;;;;;4.25;1.27;;;;;;;16.06;88.99;98935.94;4931944;29;20381;-73
2021/10/20 09:20:46;;;;;;;5.22;1.20;;;;;;;16.20;88.76;98932.91;4932566;29;20366;-74
2021/10/20 09:23:22;;;;;;;6.28;1.80;;;;;;;16.40;88.25;98942.28;4906882;29;20410;-75
2021/10/20 09:25:57;;;;;;;10.15;1.50;;;;;;;16.77;88.83;98936.00;4932796;29;20067;-75
2021/10/20 09:28:40;;;;;;;10.73;2.20;;;;;;;17.67;86.93;98934.09;4923765;29;20028;-73
2021/10/20 09:31:10;;;;;;;17.08;2.67;;;;;;;17.98;84.93;98940.13;4927732;29;20028;-74
2021/10/20 09:33:38;;;;;;;6.63;1.50;;;;;;;17.53;84.75;98923.41;4919332;29;20023;-74
2021/10/20 09:36:10;;;;;;;15.70;2.03;;;;;;;16.86;85.06;98942.22;4916512;29;20031;-76
2021/10/20 09:38:49;;;;;;;10.68;2.17;;;;;;;16.38;86.17;98934.34;4932604;29;20516;-74
2021/10/20 09:41:26;;;;;;;2.70;1.23;;;;;;;15.65;87.33;98902.56;4931223;29;20035;-74
2021/10/20 09:43:56;;;;;;;6.78;1.40;;;;;;;15.29;88.64;98906.72;4925698;29;20066;-74
2021/10/20 09:46:38;;;;;;;2.63;0.73;;;;;;;15.13;89.57;98914.75;4914034;29;20538;-73
2021/10/20 09:49:24;;;;;;;4.35;0.65;;;;;;;15.23;90.89;98912.75;4931155;29;20043;-74
2021/10/20 09:51:56;;;;;;;1.75;0.75;;;;;;;15.10;90.08;98920.94;4929699;29;20091;-75
2021/10/20 09:54:25;;;;;;;9.35;1.15;;;;;;;15.45;90.92;98919.88;4935789;29;20454;-74
2021/10/20 09:57:00;;;;;;;5.78;1.52;;;;;;;16.42;90.34;98909.63;4927576;29;20124;-76
2021/10/20 09:59:30;;;;;;;6.45;1.02;;;;;;;17.31;87.26;98899.88;4920205;29;20115;-73
2021/10/20 10:01:56;;;;;;;4.00;1.58;;;;;;;17.84;84.39;98902.56;4927351;29;20032;-74
2021/10/20 10:04:21;;;;;;;3.53;1.25;;;;;;;17.75;83.81;98910.22;4917759;29;20030;-74
2021/10/20 10:06:49;;;;;;;7.22;1.30;;;;;;;17.96;84.28;98913.63;4929655;29;20028;-74
2021/10/20 10:09:15;;;;;;;17.83;2.28;;;;;;;18.77;82.57;98909.00;4922899;29;20035;-74
2021/10/20 10:11:49;;;;;;;14.85;1.90;;;;;;;19.53;80.88;98900.47;4909716;29;20055;-74
2021/10/20 10:14:19;;;;;;;10.52;1.95;;;;;;;20.13;77.58;98899.31;4919891;29;20103;-73
2021/10/20 10:16:46;;;;;;;16.63;2.13;;;;;;;20.69;76.93;98892.38;4929258;29;20023;-73
2021/10/20 10:19:22;;;;;;;9.05;2.03;;;;;;;21.17;74.96;98894.72;4931138;29;20031;-73
2021/10/20 10:21:57;;;;;;;7.90;1.35;;;;;;;21.60;73.97;98898.91;4911936;29;20028;-72
2021/10/20 10:24:23;;;;;;;6.00;1.48;;;;;;;21.78;72.57;98895.56;4932823;29;20028;-74
2021/10/20 10:27:10;;;;;;;9.70;1.65;;;;;;;21.78;71.77;98899.13;4929114;29;20034;-72
2021/10/20 10:30:03;;;;;;;17.73;2.70;;;;;;;21.22;72.33;98903.53;4930446;29;20015;-71
2021/10/20 10:32:31;;;;;;;6.78;1.52;;;;;;;20.44;73.24;98881.63;4907195;29;20083;-72
2021/10/20 10:35:01;;;;;;;8.07;1.75;;;;;;;20.46;74.62;98875.69;4933042;29;20047;-74
2021/10/20 10:37:27;;;;;;;7.47;1.80;;;;;;;20.71;73.98;98885.28;4914842;29;20118;-72
2021/10/20 10:39:57;;;;;;;18.80;2.67;;;;;;;20.90;72.19;98864.94;4916816;29;20148;-73
2021/10/20 10:42:46;;;;;;;8.60;3.05;;;;;;;21.42;72.59;98872.81;4919531;29;20538;-72
2021/10/20 10:45:15;;;;;;;10.43;1.77;;;;;;;22.03;72.28;98893.06;4926427;29;20043;-73
2021/10/20 10:52:33;;;;;;;;;;;;;;;;;;;;;
2021/10/20 10:56:02;;;;;;;9.38;2.35;;;;;;;24.97;63.56;98885.88;4852209;29;20033;-75
2021/10/20 11:02:29;;;;;;;;;;;;;;;;;;;;;
2021/10/20 11:16:34;;;;;;;;;;;;;;;;;;;;;
2021/10/20 11:19:14;;;;;;;;;;;;;;;;;;;;;
2021/10/20 11:21:52;;;;;;;9.75;1.33;;;;;;;20.67;65.10;98873.31;4720004;30;20050;-77
2021/10/20 11:24:28;;;;;;;2.88;1.50;;;;;;;21.20;66.55;98866.16;4766224;30;20027;-76
2021/10/20 11:26:56;;;;;;;5.32;1.25;;;;;;;21.77;65.32;98866.94;4844585;29;20039;-76
2021/10/20 11:29:22;;;;;;;9.55;2.60;;;;;;;22.53;62.37;98884.47;4892865;29;20041;-76
2021/10/20 11:31:56;;;;;;;6.10;1.52;;;;;;;22.64;60.54;98853.88;4876466;29;20039;-76
2021/10/20 11:34:26;;;;;;;7.63;1.58;;;;;;;23.14;61.21;98862.66;4875358;29;20123;-76
2021/10/20 11:37:00;;;;;;;2.90;1.00;;;;;;;24.15;59.46;98874.25;4883495;29;20442;-75
2021/10/20 11:39:29;;;;;;;7.45;1.90;;;;;;;24.14;56.90;98861.47;4891028;29;20068;-75
2021/10/20 11:42:03;;;;;;;3.65;1.25;;;;;;;24.26;55.00;98881.84;4892531;29;20032;-77
2021/10/20 11:45:30;;;;;;;9.20;1.67;;;;;;;24.14;56.52;98867.06;4911595;29;20071;-75
2021/10/20 11:48:18;;;;;;;;;;;;;;;;;;;;;
2021/10/20 11:54:06;;;;;;;9.50;1.20;;;;;;;20.19;59.92;98858.97;4928020;29;20031;-76
2021/10/20 11:56:37;;;;;;;10.20;1.50;;;;;;;19.15;66.14;98872.31;4918943;29;20078;-75
2021/10/20 11:59:09;;;;;;;6.57;1.55;;;;;;;17.92;70.28;98838.06;4926692;29;20079;-75
2021/10/20 12:01:35;;;;;;;2.92;1.13;;;;;;;16.70;70.80;98834.44;4929216;29;20080;-74
2021/10/20 12:04:05;;;;;;;5.30;1.00;;;;;;;15.95;70.24;98852.06;4920290;29;20050;-75
2021/10/20 12:06:31;;;;;;;2.53;0.50;;;;;;;15.56;70.08;98854.19;4933209;29;20394;-76
2021/10/20 12:08:57;;;;;;;2.05;0.47;;;;;;;15.73;71.54;98829.22;4916414;29;20142;-74
2021/10/20 12:11:22;;;;;;;3.53;0.50;;;;;;;16.20;69.50;98839.94;4932740;29;20026;-75
2021/10/20 12:13:49;;;;;;;3.22;0.57;;;;;;;16.53;68.19;98819.75;4930753;29;20063;-75